Latest Weather Observations for White Cliffs AWS

IDN60801

Issued at 12:23 pm EDT Monday 26 October 2020 (issued every 10 minutes, with the page automatically refreshed every 10 minutes)

About weather observations | Map of weather stations | Latest weather observations for NSW | Other Formats
Station Details ID: 046129 Name: WHITE CLIFFS AWS Lat: -30.85 Lon: 143.07 Height: 158.0 m
Data from the previous 72 hours. | See also: Recent months at White Cliffs AWS
Date/Time
EDT
Temp
°C
App
Temp
°C
Dew
Point
°C
Rel
Hum
%
Delta-T
°C
Wind Press
QNH
hPa
Press
MSL
hPa
Rain since
9am
mm
Dir  Spd
km/h
Gust
km/h
Spd
kts
Gust
kts
26/12:00pm 16.8 12.3 0.0 32 7.3 WSW 13 24 7 13 1016.7 1016.1 0.0
26/11:30am 17.0 13.1 1.0 34 7.1 WSW 11 20 6 11 1017.0 1016.4 0.0
26/11:00am 16.0 11.6 0.6 35 6.7 SW 13 22 7 12 1017.2 1016.6 0.0
26/10:30am 15.8 10.3 0.4 35 6.7 SSW 19 24 10 13 1017.3 1016.7 0.0
26/10:00am 14.8 9.9 1.7 41 5.8 SW 17 22 9 12 1017.4 1016.8 0.0
26/09:30am 13.9 9.1 2.8 47 5.0 SSW 17 20 9 11 1017.5 1016.9 0.0
26/09:00am 12.9 7.8 3.0 51 4.4 SSW 19 22 10 12 1017.4 1016.8 0.0
26/08:30am 11.8 6.1 2.8 54 4.0 SSW 22 26 12 14 1017.2 1016.6 0.0
26/08:00am 10.4 5.0 1.5 54 3.7 SSW 19 24 10 13 1017.0 1016.4 0.0
26/07:30am 8.9 4.7 1.6 60 3.0 SW 13 17 7 9 1016.6 1016.0 0.0
26/07:00am 7.8 3.2 1.4 64 2.6 SW 15 17 8 9 1016.2 1015.7 0.0
26/06:30am 7.5 2.5 1.4 65 2.5 SW 17 17 9 9 1016.0 1015.5 0.0
26/06:00am 8.3 3.3 1.2 61 2.9 SW 17 20 9 11 1015.6 1015.1 0.0
26/05:30am 8.3 3.3 1.2 61 2.9 SW 17 19 9 10 1015.4 1014.9 0.0
26/05:00am 8.8 3.8 1.2 59 3.1 SSW 17 20 9 11 1015.2 1014.7 0.0
26/04:30am 9.1 3.7 1.3 58 3.2 SSW 19 19 10 10 1015.2 1014.7 0.0
26/04:00am 9.3 4.3 1.5 58 3.2 SSW 17 20 9 11 1015.2 1014.7 0.0
26/03:30am 9.7 5.5 1.4 56 3.5 SSW 13 17 7 9 1015.3 1014.8 0.0
26/03:00am 9.9 5.7 1.5 56 3.5 SSW 13 15 7 8 1015.4 1014.9 0.0
26/02:30am 10.2 5.6 1.3 54 3.7 SSW 15 15 8 8 1015.8 1015.3 0.0
26/02:00am 10.2 6.0 1.6 55 3.6 SSW 13 15 7 8 1016.0 1015.5 0.0
26/01:30am 10.7 6.4 1.3 52 4.0 SSW 13 15 7 8 1016.5 1015.9 0.0
26/01:00am 11.1 6.8 1.1 50 4.2 SSW 13 15 7 8 1016.9 1016.3 0.0
26/12:30am 11.5 7.2 0.9 48 4.5 SSW 13 15 7 8 1017.1 1016.5 0.0
26/12:00am 11.9 7.6 0.7 46 4.7 SSW 13 15 7 8 1017.3 1016.7 0.0
 
Date/Time
EDT
Temp
°C
App
Temp
°C
Dew
Point
°C
Rel
Hum
%
Delta-T
°C
Wind Press
QNH
hPa
Press
MSL
hPa
Rain since
9am
mm
Dir  Spd
km/h
Gust
km/h
Spd
kts
Gust
kts
25/11:30pm 12.8 8.0 0.2 42 5.3 SSW 15 19 8 10 1017.4 1016.8 0.0
25/11:00pm 13.3 8.5 0.3 41 5.5 SSW 15 19 8 10 1017.4 1016.8 0.0
25/10:30pm 13.9 8.7 0.2 39 5.8 SSW 17 20 9 11 1017.5 1016.9 0.0
25/10:00pm 14.5 8.7 0.0 37 6.1 SSW 20 26 11 14 1017.3 1016.7 0.0
25/09:30pm 15.0 9.2 0.1 36 6.4 SSW 20 28 11 15 1017.0 1016.4 0.0
25/09:00pm 15.5 9.9 -0.3 34 6.7 SSW 19 24 10 13 1016.8 1016.2 0.0
25/08:30pm 16.1 10.3 -0.2 33 7.0 SSW 20 28 11 15 1016.6 1016.0 0.0
25/08:00pm 16.6 10.4 -0.1 32 7.2 SSW 22 28 12 15 1016.1 1015.6 0.0
25/07:30pm 17.2 10.2 -0.5 30 7.6 SSW 26 35 14 19 1015.8 1015.3 0.0
25/07:00pm 17.9 11.4 0.1 30 7.8 SSW 24 35 13 19 1015.3 1014.8 0.0
25/06:30pm 18.5 11.7 0.6 30 8.0 S 26 33 14 18 1015.0 1014.4 0.0
25/06:00pm 18.6 11.3 -0.2 28 8.2 S 28 39 15 21 1014.8 1014.2 0.0
25/05:30pm 19.3 12.4 0.4 28 8.4 S 26 39 14 21 1014.6 1014.0 0.0
25/05:00pm 18.5 11.2 0.2 29 8.1 S 28 37 15 20 1014.5 1013.9 0.0
25/04:30pm 18.6 11.3 -0.2 28 8.2 S 28 41 15 22 1014.5 1013.9 0.0
25/04:00pm 19.3 12.4 0.4 28 8.4 S 26 39 14 21 1014.7 1014.1 0.0
25/03:30pm 19.2 12.8 0.8 29 8.3 S 24 35 13 19 1015.0 1014.4 0.0
25/03:00pm 18.7 12.3 1.2 31 7.9 SSW 24 33 13 18 1015.3 1014.8 0.0
25/02:30pm 17.2 11.1 0.4 32 7.4 SSW 22 33 12 18 1015.8 1015.3 0.0
25/02:00pm 17.5 10.3 0.6 32 7.4 S 28 41 15 22 1016.1 1015.6 0.0
25/01:54pm 17.9 10.7 1.0 32 7.5 S 28 48 15 26 1016.0 1015.5 0.0
25/01:30pm 17.2 10.5 1.2 34 7.1 S 26 35 14 19 1016.1 1015.6 0.0
25/01:00pm 16.9 9.4 1.0 34 7.0 S 30 39 16 21 1016.5 1015.9 0.0
25/12:30pm 16.1 9.4 1.4 37 6.5 S 26 44 14 24 1016.9 1016.3 0.0
25/12:00pm 15.8 8.5 2.2 40 6.1 S 30 43 16 23 1017.2 1016.6 0.0
25/11:30am 15.0 7.9 1.2 39 6.0 S 28 43 15 23 1017.5 1016.9 0.0
25/11:00am 14.2 6.1 1.2 41 5.6 S 33 44 18 24 1017.6 1017.0 0.0
25/10:30am 14.0 5.9 1.0 41 5.6 S 33 44 18 24 1017.8 1017.2 0.0
25/10:00am 13.3 5.2 1.3 44 5.2 SSE 33 44 18 24 1018.0 1017.4 0.0
25/09:30am 13.1 4.7 1.5 45 5.0 S 35 43 19 23 1018.0 1017.4 0.0
25/09:00am 12.2 4.1 1.2 47 4.7 S 33 44 18 24 1017.9 1017.3 7.8
25/08:30am 11.5 3.7 1.5 50 4.3 S 32 43 17 23 1017.6 1017.0 7.8
25/08:00am 10.9 4.1 3.2 59 3.4 S 28 35 15 19 1017.2 1016.6 7.8
25/07:30am 10.2 4.9 3.0 61 3.1 SSW 20 28 11 15 1016.8 1016.2 7.8
25/07:00am 9.9 4.2 2.7 61 3.1 S 22 28 12 15 1016.1 1015.6 7.8
25/06:30am 10.0 4.0 3.3 63 2.9 S 24 30 13 16 1015.5 1015.0 7.8
25/06:00am 10.3 4.8 3.8 64 2.9 S 22 28 12 15 1015.0 1014.4 7.8
25/05:30am 10.8 4.5 3.8 62 3.1 S 26 33 14 18 1014.3 1013.7 7.8
25/05:00am 11.3 5.0 3.8 60 3.4 S 26 35 14 19 1013.8 1013.2 7.8
25/04:30am 11.8 5.6 4.1 59 3.5 S 26 32 14 17 1013.5 1012.9 7.8
25/04:00am 12.1 6.5 5.3 63 3.2 SSW 24 30 13 16 1013.3 1012.7 7.8
25/03:30am 12.4 7.3 6.2 66 3.0 S 22 30 12 16 1012.8 1012.2 7.8
25/03:00am 12.4 7.9 6.9 69 2.7 SSW 20 28 11 15 1012.8 1012.2 7.8
25/02:30am 12.6 8.3 7.1 69 2.7 SSW 19 24 10 13 1012.9 1012.3 7.8
25/02:00am 12.8 8.9 7.3 69 2.7 SSW 17 22 9 12 1013.0 1012.4 7.8
25/01:30am 12.9 9.9 7.6 70 2.6 SSW 13 17 7 9 1013.5 1012.9 7.8
25/01:00am 13.5 10.0 7.3 66 3.0 SSW 15 19 8 10 1013.5 1012.9 7.8
25/12:30am 14.3 9.8 6.9 61 3.6 SSW 20 26 11 14 1013.4 1012.8 7.8
25/12:00am 14.6 9.7 6.9 60 3.8 S 22 30 12 16 1013.2 1012.6 7.8
 
Date/Time
EDT
Temp
°C
App
Temp
°C
Dew
Point
°C
Rel
Hum
%
Delta-T
°C
Wind Press
QNH
hPa
Press
MSL
hPa
Rain since
9am
mm
Dir  Spd
km/h
Gust
km/h
Spd
kts
Gust
kts
24/11:30pm 15.0 9.8 7.1 59 3.9 SSW 24 33 13 18 1013.1 1012.5 7.8
24/11:00pm 15.4 9.4 7.2 58 4.1 SSW 28 35 15 19 1012.8 1012.2 7.8
24/10:30pm 15.8 9.9 7.3 57 4.2 SSW 28 35 15 19 1012.5 1011.9 7.8
24/10:00pm 16.0 9.9 8.2 60 4.0 SSW 30 39 16 21 1012.3 1011.7 7.8
24/09:30pm 16.1 12.4 9.5 65 3.5 SSW 19 24 10 13 1011.7 1011.1 7.8
24/09:00pm 16.3 13.0 9.7 65 3.5 S 17 22 9 12 1011.1 1010.5 7.8
24/08:30pm 16.4 12.3 10.0 66 3.4 S 22 28 12 15 1010.5 1009.9 7.8
24/08:00pm 16.8 10.8 10.0 64 3.6 SSW 32 41 17 22 1009.7 1009.2 7.8
24/07:30pm 16.9 10.4 10.3 65 3.5 SSW 35 44 19 24 1009.1 1008.5 7.8
24/07:00pm 17.1 9.2 10.7 66 3.5 SSW 43 56 23 30 1008.5 1007.9 7.8
24/06:30pm 17.0 9.1 10.8 67 3.3 SSW 43 57 23 31 1008.3 1007.7 7.8
24/06:00pm 17.2 9.5 11.5 69 3.1 SSW 43 50 23 27 1008.1 1007.5 7.8
24/05:30pm 17.1 9.4 11.6 70 3.0 SSW 43 54 23 29 1007.9 1007.3 7.8
24/05:00pm 17.4 10.1 11.7 69 3.1 SW 41 52 22 28 1007.5 1006.9 7.8
24/04:30pm 17.5 10.5 12.4 72 2.8 SSW 41 54 22 29 1007.0 1006.4 7.8
24/04:00pm 17.8 11.4 13.1 74 2.7 SSW 39 52 21 28 1006.7 1006.1 7.8
24/03:30pm 17.6 10.8 13.1 75 2.5 SSW 41 50 22 27 1006.6 1006.0 7.8
24/03:00pm 18.4 11.5 14.1 76 2.5 SSW 43 52 23 28 1006.3 1005.7 7.8
24/02:30pm 19.2 13.4 14.9 76 2.5 SW 39 50 21 27 1005.8 1005.2 7.8
24/02:00pm 18.2 12.4 14.9 81 1.9 SSW 39 48 21 26 1005.6 1005.0 7.8
24/01:30pm 19.0 13.3 16.2 84 1.7 SW 41 48 22 26 1005.4 1004.8 7.8
24/01:00pm 18.4 14.4 17.6 95 0.5 SSW 35 44 19 24 1005.3 1004.7 7.8
24/12:30pm 18.2 14.7 17.9 98 0.2 WSW 33 44 18 24 1005.0 1004.4 6.6
24/12:00pm 19.6 16.6 16.8 84 1.7 SW 28 37 15 20 1004.6 1004.0 0.6
24/11:30am 23.3 21.1 14.8 59 5.1 WNW 20 28 11 15 1004.3 1003.7 0.0
24/11:00am 22.8 20.6 14.9 61 4.7 NW 20 30 11 16 1004.2 1003.5 0.0
24/10:30am 21.5 19.2 14.6 65 4.1 NW 20 26 11 14 1004.4 1003.8 0.0
24/10:00am 21.1 18.7 14.5 66 3.9 NW 20 28 11 15 1004.3 1003.7 0.0
24/09:30am 21.0 18.4 14.9 68 3.6 NW 22 26 12 14 1004.2 1003.5 0.0
24/09:00am 20.8 18.4 15.4 71 3.2 NNW 22 28 12 15 1003.9 1003.2 0.2
24/08:30am 20.2 17.4 15.4 74 2.9 NW 24 32 13 17 1003.7 1003.0 0.2
24/08:00am 19.7 17.1 16.0 79 2.2 NNW 24 32 13 17 1003.1 1002.5 0.0
24/07:30am 19.2 17.6 16.6 85 1.6 N 20 26 11 14 1003.0 1002.4 0.0
24/07:00am 18.7 17.3 16.5 87 1.3 N 19 24 10 13 1002.8 1002.2 0.0
24/06:30am 18.7 16.9 16.1 85 1.6 N 20 26 11 14 1002.6 1002.0 0.0
24/06:00am 19.0 17.3 16.2 84 1.7 N 20 26 11 14 1002.4 1001.8 0.0
24/05:30am 19.2 17.1 16.1 82 1.9 NNW 22 30 12 16 1002.1 1001.5 0.0
24/05:00am 19.6 17.8 15.9 79 2.2 N 20 26 11 14 1002.0 1001.4 0.0
24/04:30am 20.0 17.7 15.6 76 2.6 NNW 22 28 12 15 1002.0 1001.4 0.0
24/04:00am 20.5 17.0 15.5 73 3.0 NNW 28 37 15 20 1002.1 1001.5 0.0
24/03:30am 20.9 16.5 15.2 70 3.4 NNW 32 39 17 21 1001.9 1001.3 0.0
24/03:00am 21.0 17.3 14.9 68 3.6 NNW 28 39 15 21 1002.1 1001.5 0.0
24/02:30am 21.2 17.0 14.6 66 3.9 N 30 41 16 22 1002.2 1001.6 0.0
24/02:00am 21.4 16.7 14.3 64 4.2 N 32 48 17 26 1002.4 1001.8 0.0
24/01:30am 21.4 16.7 14.8 66 3.9 N 33 50 18 27 1002.9 1002.3 0.0
24/01:00am 21.6 16.6 15.0 66 3.9 N 35 46 19 25 1003.0 1002.4 0.0
24/12:30am 21.5 17.6 14.4 64 4.2 N 28 35 15 19 1003.7 1003.0 0.0
24/12:00am 22.0 18.9 13.4 58 5.0 N 22 30 12 16 1003.9 1003.2 0.0
 
Date/Time
EDT
Temp
°C
App
Temp
°C
Dew
Point
°C
Rel
Hum
%
Delta-T
°C
Wind Press
QNH
hPa
Press
MSL
hPa
Rain since
9am
mm
Dir  Spd
km/h
Gust
km/h
Spd
kts
Gust
kts
23/11:30pm 22.6 20.1 14.2 59 5.0 NNW 20 26 11 14 1003.6 1002.9 0.0
23/11:00pm 23.4 22.4 14.7 58 5.2 N 13 19 7 10 1003.0 1002.4 0.0
23/10:30pm 23.0 22.8 14.6 59 5.0 NE 9 11 5 6 1002.8 1002.2 0.0
23/10:00pm 23.9 22.5 14.6 56 5.6 NE 15 20 8 11 1003.0 1002.4 0.0
23/09:30pm 24.1 22.4 14.8 56 5.6 ENE 17 22 9 12 1001.9 1001.3 0.0
23/09:00pm 24.0 22.2 15.5 59 5.2 E 19 26 10 14 1001.7 1001.1 0.0
23/08:30pm 24.3 23.5 16.0 60 5.1 ESE 15 17 8 9 1003.5 1002.8 0.0
23/08:00pm 23.9 23.7 16.7 64 4.5 ESE 13 15 7 8 1002.6 1002.0 0.0
23/07:30pm 24.2 24.9 17.0 64 4.5 E 9 11 5 6 1002.5 1001.9 0.0
23/07:00pm 24.6 25.5 16.6 61 5.0 ENE 7 9 4 5 1002.7 1002.1 0.0
23/06:30pm 24.8 26.9 17.3 63 4.7 NNE 2 7 1 4 1003.5 1002.8 0.0
23/06:00pm 24.6 24.7 16.6 61 5.0 NNE 11 15 6 8 1003.0 1002.4 0.0
23/05:30pm 24.1 22.3 16.1 61 4.9 NNE 20 30 11 16 1002.7 1002.1 0.0
23/05:00pm 27.1 25.9 14.1 44 7.8 NNW 13 19 7 10 1004.3 1003.7 0.0
23/04:30pm 26.9 23.4 13.3 43 8.1 NNW 24 32 13 17 1004.1 1003.4 0.0
23/04:00pm 27.5 23.3 12.3 39 8.9 N 26 35 14 19 1004.1 1003.4 0.0
23/03:30pm 27.0 22.5 12.6 41 8.4 N 28 37 15 20 1004.2 1003.5 0.0
23/03:00pm 26.7 21.0 13.1 43 8.0 N 35 50 19 27 1004.4 1003.8 0.0
23/02:30pm 26.8 21.6 12.8 42 8.2 N 32 43 17 23 1004.4 1003.8 0.0
23/02:14pm 27.0 21.6 12.3 40 8.6 N 32 50 17 27 1004.8 1004.2 0.0
23/02:00pm 26.7 20.5 12.7 42 8.2 NNW 37 48 20 26 1004.8 1004.2 0.0
23/01:30pm 26.8 20.9 12.5 41 8.4 N 35 44 19 24 1005.5 1004.9 0.0
23/01:00pm 26.6 20.5 11.9 40 8.5 N 35 48 19 26 1005.6 1005.0 0.0
23/12:30pm 26.3 21.5 11.6 40 8.4 N 28 39 15 21 1006.4 1005.8 0.0

Other formats

Comma delimited format used in spreadsheet applications
http://www.bom.gov.au/fwo/IDN60801/IDN60801.95699.axf

JavaScript Object Notation format (JSON) in row-major order
http://www.bom.gov.au/fwo/IDN60801/IDN60801.95699.json

Data quality

Most of these data are generated automatically and are frequently updated. Quality checks on data are not normally performed. It is possible for incorrect values to appear. Refer to information at About Latest Weather Observations and please check the disclaimer before using these data.